sensor_id;sensor_type;location;lat;lon;timestamp;temperature;humidity
37232;DHT22;23125;48.156;15.954;2023-10-09T00:01:07;15.60;60.10
37232;DHT22;23125;48.156;15.954;2023-10-09T00:03:45;15.60;60.20
37232;DHT22;23125;48.156;15.954;2023-10-09T00:06:16;15.60;60.20
37232;DHT22;23125;48.156;15.954;2023-10-09T00:08:42;15.60;60.40
37232;DHT22;23125;48.156;15.954;2023-10-09T00:11:20;15.50;60.40
37232;DHT22;23125;48.156;15.954;2023-10-09T00:13:47;15.50;60.40
37232;DHT22;23125;48.156;15.954;2023-10-09T00:16:24;15.50;60.40
37232;DHT22;23125;48.156;15.954;2023-10-09T00:19:05;15.50;60.70
37232;DHT22;23125;48.156;15.954;2023-10-09T00:21:47;15.60;60.70
37232;DHT22;23125;48.156;15.954;2023-10-09T00:24:14;15.60;60.80
37232;DHT22;23125;48.156;15.954;2023-10-09T00:26:45;15.60;60.80
37232;DHT22;23125;48.156;15.954;2023-10-09T00:29:15;15.60;60.70
37232;DHT22;23125;48.156;15.954;2023-10-09T00:31:54;15.60;60.80
37232;DHT22;23125;48.156;15.954;2023-10-09T00:34:29;15.60;60.70
37232;DHT22;23125;48.156;15.954;2023-10-09T00:36:55;15.60;60.70
37232;DHT22;23125;48.156;15.954;2023-10-09T00:39:30;15.60;60.70
37232;DHT22;23125;48.156;15.954;2023-10-09T00:42:01;15.60;60.70
37232;DHT22;23125;48.156;15.954;2023-10-09T00:44:29;15.60;60.60
37232;DHT22;23125;48.156;15.954;2023-10-09T00:47:08;15.60;60.60
37232;DHT22;23125;48.156;15.954;2023-10-09T00:49:59;15.60;60.40
37232;DHT22;23125;48.156;15.954;2023-10-09T00:52:29;15.50;60.60
37232;DHT22;23125;48.156;15.954;2023-10-09T00:55:05;15.60;60.60
37232;DHT22;23125;48.156;15.954;2023-10-09T00:57:45;15.50;60.60
37232;DHT22;23125;48.156;15.954;2023-10-09T01:00:24;15.50;60.40
37232;DHT22;23125;48.156;15.954;2023-10-09T01:03:19;15.50;60.50
37232;DHT22;23125;48.156;15.954;2023-10-09T01:05:51;15.50;60.50
37232;DHT22;23125;48.156;15.954;2023-10-09T01:08:19;15.40;60.40
37232;DHT22;23125;48.156;15.954;2023-10-09T01:11:13;15.40;60.40
37232;DHT22;23125;48.156;15.954;2023-10-09T01:13:47;15.40;60.50
37232;DHT22;23125;48.156;15.954;2023-10-09T01:16:17;15.40;60.50
37232;DHT22;23125;48.156;15.954;2023-10-09T01:18:43;15.40;60.60
37232;DHT22;23125;48.156;15.954;2023-10-09T01:21:11;15.40;60.50
37232;DHT22;23125;48.156;15.954;2023-10-09T01:23:46;15.40;60.50
37232;DHT22;23125;48.156;15.954;2023-10-09T01:29:11;15.30;60.40
37232;DHT22;23125;48.156;15.954;2023-10-09T01:31:51;15.30;60.30
37232;DHT22;23125;48.156;15.954;2023-10-09T01:34:35;15.30;60.30
37232;DHT22;23125;48.156;15.954;2023-10-09T01:37:16;15.30;60.30
37232;DHT22;23125;48.156;15.954;2023-10-09T01:39:53;15.20;60.90
37232;DHT22;23125;48.156;15.954;2023-10-09T01:42:23;15.20;60.90
37232;DHT22;23125;48.156;15.954;2023-10-09T01:44:55;15.20;60.40
37232;DHT22;23125;48.156;15.954;2023-10-09T01:47:24;15.20;60.50
37232;DHT22;23125;48.156;15.954;2023-10-09T01:49:52;15.20;60.50
37232;DHT22;23125;48.156;15.954;2023-10-09T01:52:23;15.20;60.40
37232;DHT22;23125;48.156;15.954;2023-10-09T01:54:51;15.10;60.20
37232;DHT22;23125;48.156;15.954;2023-10-09T01:57:19;15.10;60.20
37232;DHT22;23125;48.156;15.954;2023-10-09T01:59:50;15.10;60.30
37232;DHT22;23125;48.156;15.954;2023-10-09T02:02:19;15.10;60.00
37232;DHT22;23125;48.156;15.954;2023-10-09T02:04:59;15.00;60.00
37232;DHT22;23125;48.156;15.954;2023-10-09T02:07:38;15.00;60.10
37232;DHT22;23125;48.156;15.954;2023-10-09T02:10:12;15.00;60.30
37232;DHT22;23125;48.156;15.954;2023-10-09T02:12:56;14.90;60.30
37232;DHT22;23125;48.156;15.954;2023-10-09T02:15:29;14.90;60.20
37232;DHT22;23125;48.156;15.954;2023-10-09T02:23:35;14.80;60.30
37232;DHT22;23125;48.156;15.954;2023-10-09T02:26:05;14.80;60.30
37232;DHT22;23125;48.156;15.954;2023-10-09T02:28:57;14.80;60.50
37232;DHT22;23125;48.156;15.954;2023-10-09T02:31:29;14.80;60.50
37232;DHT22;23125;48.156;15.954;2023-10-09T02:34:22;14.70;60.40
37232;DHT22;23125;48.156;15.954;2023-10-09T02:36:51;14.80;60.50
37232;DHT22;23125;48.156;15.954;2023-10-09T02:39:26;14.70;60.40
37232;DHT22;23125;48.156;15.954;2023-10-09T02:41:53;14.70;60.40
37232;DHT22;23125;48.156;15.954;2023-10-09T02:44:26;14.70;60.50
37232;DHT22;23125;48.156;15.954;2023-10-09T02:46:52;14.70;60.60
37232;DHT22;23125;48.156;15.954;2023-10-09T02:49:24;14.70;60.30
37232;DHT22;23125;48.156;15.954;2023-10-09T02:51:50;14.70;60.60
37232;DHT22;23125;48.156;15.954;2023-10-09T02:54:19;14.70;60.60
37232;DHT22;23125;48.156;15.954;2023-10-09T02:56:49;14.70;61.10
37232;DHT22;23125;48.156;15.954;2023-10-09T02:59:23;14.70;60.40
37232;DHT22;23125;48.156;15.954;2023-10-09T03:01:50;14.70;60.20
37232;DHT22;23125;48.156;15.954;2023-10-09T03:04:18;14.60;60.00
37232;DHT22;23125;48.156;15.954;2023-10-09T03:06:45;14.60;60.20
37232;DHT22;23125;48.156;15.954;2023-10-09T03:09:20;14.60;60.50
37232;DHT22;23125;48.156;15.954;2023-10-09T03:12:02;14.60;60.40
37232;DHT22;23125;48.156;15.954;2023-10-09T03:14:32;14.50;60.20
37232;DHT22;23125;48.156;15.954;2023-10-09T03:17:01;14.50;60.20
37232;DHT22;23125;48.156;15.954;2023-10-09T03:19:30;14.50;60.40
37232;DHT22;23125;48.156;15.954;2023-10-09T03:21:56;14.60;60.60
37232;DHT22;23125;48.156;15.954;2023-10-09T03:24:26;14.60;60.50
37232;DHT22;23125;48.156;15.954;2023-10-09T03:26:56;14.60;60.50
37232;DHT22;23125;48.156;15.954;2023-10-09T03:29:24;14.60;60.30
37232;DHT22;23125;48.156;15.954;2023-10-09T03:31:49;14.60;60.30
37232;DHT22;23125;48.156;15.954;2023-10-09T03:34:21;14.60;60.30
37232;DHT22;23125;48.156;15.954;2023-10-09T03:36:47;14.60;60.20
37232;DHT22;23125;48.156;15.954;2023-10-09T03:39:14;14.60;60.10
37232;DHT22;23125;48.156;15.954;2023-10-09T03:41:59;14.60;60.80
37232;DHT22;23125;48.156;15.954;2023-10-09T03:44:25;14.50;59.80
37232;DHT22;23125;48.156;15.954;2023-10-09T03:46:55;14.50;60.00
37232;DHT22;23125;48.156;15.954;2023-10-09T03:49:21;14.50;59.70
37232;DHT22;23125;48.156;15.954;2023-10-09T03:51:52;14.50;59.80
37232;DHT22;23125;48.156;15.954;2023-10-09T03:54:19;14.50;59.90
37232;DHT22;23125;48.156;15.954;2023-10-09T03:56:49;14.40;59.70
37232;DHT22;23125;48.156;15.954;2023-10-09T03:59:18;14.40;59.90
37232;DHT22;23125;48.156;15.954;2023-10-09T04:01:48;14.30;59.80
37232;DHT22;23125;48.156;15.954;2023-10-09T04:04:17;14.30;60.00
37232;DHT22;23125;48.156;15.954;2023-10-09T04:06:43;14.30;60.00
37232;DHT22;23125;48.156;15.954;2023-10-09T04:09:10;14.30;60.00
37232;DHT22;23125;48.156;15.954;2023-10-09T04:11:50;14.30;59.90
37232;DHT22;23125;48.156;15.954;2023-10-09T04:14:23;14.30;59.80
37232;DHT22;23125;48.156;15.954;2023-10-09T04:17:01;14.30;59.90
37232;DHT22;23125;48.156;15.954;2023-10-09T04:19:52;14.20;59.90
37232;DHT22;23125;48.156;15.954;2023-10-09T04:22:38;14.20;60.00
37232;DHT22;23125;48.156;15.954;2023-10-09T04:25:30;14.20;60.10
37232;DHT22;23125;48.156;15.954;2023-10-09T04:28:17;14.20;60.30
37232;DHT22;23125;48.156;15.954;2023-10-09T04:30:48;14.20;60.20
37232;DHT22;23125;48.156;15.954;2023-10-09T04:33:21;14.20;60.10
37232;DHT22;23125;48.156;15.954;2023-10-09T04:36:03;14.10;60.10
37232;DHT22;23125;48.156;15.954;2023-10-09T04:38:42;14.10;60.20
37232;DHT22;23125;48.156;15.954;2023-10-09T04:41:22;14.10;60.20
37232;DHT22;23125;48.156;15.954;2023-10-09T04:43:56;14.10;60.20
37232;DHT22;23125;48.156;15.954;2023-10-09T04:46:52;14.10;60.40
37232;DHT22;23125;48.156;15.954;2023-10-09T04:49:39;14.10;60.50
37232;DHT22;23125;48.156;15.954;2023-10-09T04:52:17;14.10;60.50
37232;DHT22;23125;48.156;15.954;2023-10-09T04:54:45;14.10;60.60
37232;DHT22;23125;48.156;15.954;2023-10-09T04:57:29;14.10;60.60
37232;DHT22;23125;48.156;15.954;2023-10-09T05:00:05;14.10;60.60
37232;DHT22;23125;48.156;15.954;2023-10-09T05:02:32;14.10;60.60
37232;DHT22;23125;48.156;15.954;2023-10-09T05:05:03;14.10;60.80
37232;DHT22;23125;48.156;15.954;2023-10-09T05:07:53;14.10;60.80
37232;DHT22;23125;48.156;15.954;2023-10-09T05:10:22;14.10;60.90
37232;DHT22;23125;48.156;15.954;2023-10-09T05:12:51;14.10;61.00
37232;DHT22;23125;48.156;15.954;2023-10-09T05:15:24;14.10;61.00
37232;DHT22;23125;48.156;15.954;2023-10-09T05:17:56;14.10;61.00
37232;DHT22;23125;48.156;15.954;2023-10-09T05:20:25;14.10;61.00
37232;DHT22;23125;48.156;15.954;2023-10-09T05:22:53;14.10;61.10
37232;DHT22;23125;48.156;15.954;2023-10-09T05:25:26;14.10;61.00
37232;DHT22;23125;48.156;15.954;2023-10-09T05:28:11;14.10;61.00
37232;DHT22;23125;48.156;15.954;2023-10-09T05:30:56;14.20;61.00
37232;DHT22;23125;48.156;15.954;2023-10-09T05:33:36;14.20;61.00
37232;DHT22;23125;48.156;15.954;2023-10-09T05:36:04;14.20;61.10
37232;DHT22;23125;48.156;15.954;2023-10-09T05:38:42;14.20;61.10
37232;DHT22;23125;48.156;15.954;2023-10-09T05:41:25;14.20;61.00
37232;DHT22;23125;48.156;15.954;2023-10-09T05:44:13;14.20;61.00
37232;DHT22;23125;48.156;15.954;2023-10-09T05:46:57;14.20;61.20
37232;DHT22;23125;48.156;15.954;2023-10-09T05:49:42;14.20;61.30
37232;DHT22;23125;48.156;15.954;2023-10-09T05:52:34;14.30;61.40
37232;DHT22;23125;48.156;15.954;2023-10-09T05:55:04;14.30;61.30
37232;DHT22;23125;48.156;15.954;2023-10-09T05:57:53;14.30;61.40
37232;DHT22;23125;48.156;15.954;2023-10-09T06:00:37;14.40;61.60
37232;DHT22;23125;48.156;15.954;2023-10-09T06:03:21;14.50;61.60
37232;DHT22;23125;48.156;15.954;2023-10-09T06:06:13;14.50;61.70
37232;DHT22;23125;48.156;15.954;2023-10-09T06:09:05;14.60;62.50
37232;DHT22;23125;48.156;15.954;2023-10-09T06:11:41;14.70;61.80
37232;DHT22;23125;48.156;15.954;2023-10-09T06:14:18;14.80;61.90
37232;DHT22;23125;48.156;15.954;2023-10-09T06:16:52;14.80;61.90
37232;DHT22;23125;48.156;15.954;2023-10-09T06:19:47;15.00;62.50
37232;DHT22;23125;48.156;15.954;2023-10-09T06:22:14;15.10;62.40
37232;DHT22;23125;48.156;15.954;2023-10-09T06:24:59;15.20;62.30
37232;DHT22;23125;48.156;15.954;2023-10-09T06:27:35;15.30;62.40
37232;DHT22;23125;48.156;15.954;2023-10-09T06:30:00;15.40;62.40
37232;DHT22;23125;48.156;15.954;2023-10-09T06:32:45;15.60;62.60
37232;DHT22;23125;48.156;15.954;2023-10-09T06:35:17;15.80;62.80
37232;DHT22;23125;48.156;15.954;2023-10-09T06:37:59;15.90;62.50
37232;DHT22;23125;48.156;15.954;2023-10-09T06:40:36;16.00;62.20
37232;DHT22;23125;48.156;15.954;2023-10-09T06:43:03;16.20;62.60
37232;DHT22;23125;48.156;15.954;2023-10-09T06:45:53;16.40;62.90
37232;DHT22;23125;48.156;15.954;2023-10-09T06:48:38;16.60;62.90
37232;DHT22;23125;48.156;15.954;2023-10-09T06:51:05;16.90;63.30
37232;DHT22;23125;48.156;15.954;2023-10-09T06:53:50;17.10;62.90
37232;DHT22;23125;48.156;15.954;2023-10-09T06:56:27;17.30;62.10
37232;DHT22;23125;48.156;15.954;2023-10-09T06:59:00;17.30;61.30
37232;DHT22;23125;48.156;15.954;2023-10-09T07:01:42;17.40;61.00
37232;DHT22;23125;48.156;15.954;2023-10-09T07:04:13;17.40;60.80
37232;DHT22;23125;48.156;15.954;2023-10-09T07:07:05;17.60;61.10
37232;DHT22;23125;48.156;15.954;2023-10-09T07:09:39;17.80;61.50
37232;DHT22;23125;48.156;15.954;2023-10-09T07:12:23;17.90;61.00
37232;DHT22;23125;48.156;15.954;2023-10-09T07:14:53;18.00;60.50
37232;DHT22;23125;48.156;15.954;2023-10-09T07:17:21;18.20;61.00
37232;DHT22;23125;48.156;15.954;2023-10-09T07:19:51;18.60;62.40
37232;DHT22;23125;48.156;15.954;2023-10-09T07:22:17;19.00;62.00
37232;DHT22;23125;48.156;15.954;2023-10-09T07:24:49;19.30;61.30
37232;DHT22;23125;48.156;15.954;2023-10-09T07:27:24;19.60;60.30
37232;DHT22;23125;48.156;15.954;2023-10-09T07:30:09;19.80;60.00
37232;DHT22;23125;48.156;15.954;2023-10-09T07:33:03;20.20;60.20
37232;DHT22;23125;48.156;15.954;2023-10-09T07:35:54;20.70;60.40
37232;DHT22;23125;48.156;15.954;2023-10-09T07:38:27;21.20;59.90
37232;DHT22;23125;48.156;15.954;2023-10-09T07:41:01;21.60;59.20
37232;DHT22;23125;48.156;15.954;2023-10-09T07:43:32;22.00;58.40
37232;DHT22;23125;48.156;15.954;2023-10-09T07:46:09;22.30;57.20
37232;DHT22;23125;48.156;15.954;2023-10-09T07:48:55;22.50;56.40
37232;DHT22;23125;48.156;15.954;2023-10-09T07:51:23;22.80;56.10
37232;DHT22;23125;48.156;15.954;2023-10-09T07:53:52;22.90;55.10
37232;DHT22;23125;48.156;15.954;2023-10-09T07:56:34;23.20;55.60
37232;DHT22;23125;48.156;15.954;2023-10-09T07:59:12;23.60;55.00
37232;DHT22;23125;48.156;15.954;2023-10-09T08:01:43;23.80;54.70
37232;DHT22;23125;48.156;15.954;2023-10-09T08:04:24;24.10;54.60
37232;DHT22;23125;48.156;15.954;2023-10-09T08:07:15;24.40;53.90
37232;DHT22;23125;48.156;15.954;2023-10-09T08:10:02;24.80;53.80
37232;DHT22;23125;48.156;15.954;2023-10-09T08:12:43;25.10;53.00
37232;DHT22;23125;48.156;15.954;2023-10-09T08:15:10;25.40;52.80
37232;DHT22;23125;48.156;15.954;2023-10-09T08:17:56;25.70;51.90
37232;DHT22;23125;48.156;15.954;2023-10-09T08:20:30;25.70;50.90
37232;DHT22;23125;48.156;15.954;2023-10-09T08:23:15;25.80;50.30
37232;DHT22;23125;48.156;15.954;2023-10-09T08:26:08;26.00;50.10
37232;DHT22;23125;48.156;15.954;2023-10-09T08:28:41;26.20;50.40
37232;DHT22;23125;48.156;15.954;2023-10-09T08:31:16;26.50;49.80
37232;DHT22;23125;48.156;15.954;2023-10-09T08:34:00;26.60;48.80
37232;DHT22;23125;48.156;15.954;2023-10-09T08:36:28;26.70;47.90
37232;DHT22;23125;48.156;15.954;2023-10-09T08:38:55;26.70;47.50
37232;DHT22;23125;48.156;15.954;2023-10-09T08:41:25;26.80;47.30
37232;DHT22;23125;48.156;15.954;2023-10-09T08:43:56;26.90;46.90
37232;DHT22;23125;48.156;15.954;2023-10-09T08:46:27;26.90;46.30
37232;DHT22;23125;48.156;15.954;2023-10-09T08:48:57;26.90;45.90
37232;DHT22;23125;48.156;15.954;2023-10-09T08:51:26;26.80;45.30
37232;DHT22;23125;48.156;15.954;2023-10-09T08:53:53;26.90;45.50
37232;DHT22;23125;48.156;15.954;2023-10-09T08:56:20;27.00;45.60
37232;DHT22;23125;48.156;15.954;2023-10-09T08:58:56;27.10;45.80
37232;DHT22;23125;48.156;15.954;2023-10-09T09:01:23;27.30;45.40
37232;DHT22;23125;48.156;15.954;2023-10-09T09:03:52;27.40;44.70
37232;DHT22;23125;48.156;15.954;2023-10-09T09:06:22;27.30;44.10
37232;DHT22;23125;48.156;15.954;2023-10-09T09:08:49;27.30;44.00
37232;DHT22;23125;48.156;15.954;2023-10-09T09:11:20;27.40;44.10
37232;DHT22;23125;48.156;15.954;2023-10-09T09:16:35;27.60;44.10
37232;DHT22;23125;48.156;15.954;2023-10-09T09:19:06;27.70;43.70
37232;DHT22;23125;48.156;15.954;2023-10-09T09:21:40;27.60;42.90
37232;DHT22;23125;48.156;15.954;2023-10-09T09:24:13;27.60;42.90
37232;DHT22;23125;48.156;15.954;2023-10-09T09:26:53;27.40;41.80
37232;DHT22;23125;48.156;15.954;2023-10-09T09:29:46;27.20;41.70
37232;DHT22;23125;48.156;15.954;2023-10-09T09:32:30;26.90;41.60
37232;DHT22;23125;48.156;15.954;2023-10-09T09:35:03;26.80;41.80
37232;DHT22;23125;48.156;15.954;2023-10-09T09:37:33;26.60;41.90
37232;DHT22;23125;48.156;15.954;2023-10-09T09:40:08;26.50;42.30
37232;DHT22;23125;48.156;15.954;2023-10-09T09:42:56;26.50;42.90
37232;DHT22;23125;48.156;15.954;2023-10-09T09:45:23;26.50;43.10
37232;DHT22;23125;48.156;15.954;2023-10-09T09:47:50;26.50;43.00
37232;DHT22;23125;48.156;15.954;2023-10-09T09:50:18;26.60;42.70
37232;DHT22;23125;48.156;15.954;2023-10-09T09:52:55;26.60;42.70
37232;DHT22;23125;48.156;15.954;2023-10-09T09:55:29;26.60;42.80
37232;DHT22;23125;48.156;15.954;2023-10-09T09:57:59;26.60;42.60
37232;DHT22;23125;48.156;15.954;2023-10-09T10:00:31;26.50;42.20
37232;DHT22;23125;48.156;15.954;2023-10-09T10:03:22;26.60;42.70
37232;DHT22;23125;48.156;15.954;2023-10-09T10:05:50;26.70;43.00
37232;DHT22;23125;48.156;15.954;2023-10-09T10:08:21;26.80;43.10
37232;DHT22;23125;48.156;15.954;2023-10-09T10:10:48;27.00;43.10
37232;DHT22;23125;48.156;15.954;2023-10-09T10:16:11;27.20;42.30
37232;DHT22;23125;48.156;15.954;2023-10-09T10:21:33;27.20;41.90
37232;DHT22;23125;48.156;15.954;2023-10-09T10:35:20;27.80;41.40
37232;DHT22;23125;48.156;15.954;2023-10-09T10:37:58;27.90;41.00
37232;DHT22;23125;48.156;15.954;2023-10-09T10:40:33;27.90;40.70
37232;DHT22;23125;48.156;15.954;2023-10-09T10:43:23;27.80;40.50
37232;DHT22;23125;48.156;15.954;2023-10-09T10:46:14;27.80;40.20
37232;DHT22;23125;48.156;15.954;2023-10-09T10:48:58;27.60;40.10
37232;DHT22;23125;48.156;15.954;2023-10-09T10:51:26;27.60;40.20
37232;DHT22;23125;48.156;15.954;2023-10-09T10:54:02;27.50;40.20
37232;DHT22;23125;48.156;15.954;2023-10-09T10:56:46;27.30;39.70
37232;DHT22;23125;48.156;15.954;2023-10-09T10:59:15;27.10;39.80
37232;DHT22;23125;48.156;15.954;2023-10-09T11:01:49;27.00;40.10
37232;DHT22;23125;48.156;15.954;2023-10-09T11:04:20;26.90;40.10
37232;DHT22;23125;48.156;15.954;2023-10-09T11:06:56;26.80;40.30
37232;DHT22;23125;48.156;15.954;2023-10-09T11:09:26;26.60;40.40
37232;DHT22;23125;48.156;15.954;2023-10-09T11:12:05;26.60;40.70
37232;DHT22;23125;48.156;15.954;2023-10-09T11:14:49;26.50;40.70
37232;DHT22;23125;48.156;15.954;2023-10-09T11:18:10;26.40;40.80
37232;DHT22;23125;48.156;15.954;2023-10-09T11:20:52;26.20;40.70
37232;DHT22;23125;48.156;15.954;2023-10-09T11:23:32;26.10;40.80
37232;DHT22;23125;48.156;15.954;2023-10-09T11:26:00;25.90;40.90
37232;DHT22;23125;48.156;15.954;2023-10-09T11:28:45;25.80;41.20
37232;DHT22;23125;48.156;15.954;2023-10-09T11:31:23;25.70;41.60
37232;DHT22;23125;48.156;15.954;2023-10-09T11:33:53;25.60;41.70
37232;DHT22;23125;48.156;15.954;2023-10-09T11:36:21;25.40;41.60
37232;DHT22;23125;48.156;15.954;2023-10-09T11:39:02;25.40;42.00
37232;DHT22;23125;48.156;15.954;2023-10-09T11:41:44;25.30;42.10
37232;DHT22;23125;48.156;15.954;2023-10-09T11:44:11;25.20;42.20
37232;DHT22;23125;48.156;15.954;2023-10-09T11:47:02;25.10;42.30
37232;DHT22;23125;48.156;15.954;2023-10-09T11:49:53;24.90;42.20
37232;DHT22;23125;48.156;15.954;2023-10-09T11:52:24;24.70;42.50
37232;DHT22;23125;48.156;15.954;2023-10-09T11:55:04;24.60;42.70
37232;DHT22;23125;48.156;15.954;2023-10-09T11:57:41;24.40;43.00
37232;DHT22;23125;48.156;15.954;2023-10-09T12:00:07;24.30;43.50
37232;DHT22;23125;48.156;15.954;2023-10-09T12:02:50;24.20;43.90
37232;DHT22;23125;48.156;15.954;2023-10-09T12:05:16;24.10;44.30
37232;DHT22;23125;48.156;15.954;2023-10-09T12:07:46;24.10;44.50
37232;DHT22;23125;48.156;15.954;2023-10-09T12:10:12;24.10;44.80
37232;DHT22;23125;48.156;15.954;2023-10-09T12:12:44;24.10;45.30
37232;DHT22;23125;48.156;15.954;2023-10-09T12:15:12;24.10;45.70
37232;DHT22;23125;48.156;15.954;2023-10-09T12:17:44;24.10;45.80
37232;DHT22;23125;48.156;15.954;2023-10-09T12:20:15;24.10;46.00
37232;DHT22;23125;48.156;15.954;2023-10-09T12:23:08;24.20;46.20
37232;DHT22;23125;48.156;15.954;2023-10-09T12:25:34;24.20;46.10
37232;DHT22;23125;48.156;15.954;2023-10-09T12:28:02;24.10;46.10
37232;DHT22;23125;48.156;15.954;2023-10-09T12:30:31;24.10;46.20
37232;DHT22;23125;48.156;15.954;2023-10-09T12:33:04;24.10;46.20
37232;DHT22;23125;48.156;15.954;2023-10-09T12:35:39;24.10;46.60
37232;DHT22;23125;48.156;15.954;2023-10-09T12:38:06;24.10;46.80
37232;DHT22;23125;48.156;15.954;2023-10-09T12:40:36;24.10;47.00
37232;DHT22;23125;48.156;15.954;2023-10-09T12:43:04;24.10;46.60
37232;DHT22;23125;48.156;15.954;2023-10-09T12:45:34;24.00;46.50
37232;DHT22;23125;48.156;15.954;2023-10-09T12:48:00;23.90;46.70
37232;DHT22;23125;48.156;15.954;2023-10-09T12:50:33;23.80;46.90
37232;DHT22;23125;48.156;15.954;2023-10-09T12:53:01;23.80;47.30
37232;DHT22;23125;48.156;15.954;2023-10-09T12:55:39;23.70;47.60
37232;DHT22;23125;48.156;15.954;2023-10-09T12:58:09;23.70;47.90
37232;DHT22;23125;48.156;15.954;2023-10-09T13:00:41;23.60;48.10
37232;DHT22;23125;48.156;15.954;2023-10-09T13:03:15;23.60;48.50
37232;DHT22;23125;48.156;15.954;2023-10-09T13:05:46;23.60;48.80
37232;DHT22;23125;48.156;15.954;2023-10-09T13:08:25;23.60;49.10
37232;DHT22;23125;48.156;15.954;2023-10-09T13:11:02;23.70;49.40
37232;DHT22;23125;48.156;15.954;2023-10-09T13:13:36;23.70;49.40
37232;DHT22;23125;48.156;15.954;2023-10-09T13:16:19;23.70;49.50
37232;DHT22;23125;48.156;15.954;2023-10-09T13:18:54;23.60;49.50
37232;DHT22;23125;48.156;15.954;2023-10-09T13:21:23;23.60;49.70
37232;DHT22;23125;48.156;15.954;2023-10-09T13:23:50;23.60;49.50
37232;DHT22;23125;48.156;15.954;2023-10-09T13:26:20;23.50;49.60
37232;DHT22;23125;48.156;15.954;2023-10-09T13:28:59;23.40;49.90
37232;DHT22;23125;48.156;15.954;2023-10-09T13:31:27;23.40;50.00
37232;DHT22;23125;48.156;15.954;2023-10-09T13:33:54;23.30;50.10
37232;DHT22;23125;48.156;15.954;2023-10-09T13:36:21;23.20;50.30
37232;DHT22;23125;48.156;15.954;2023-10-09T13:39:01;23.10;50.60
37232;DHT22;23125;48.156;15.954;2023-10-09T13:41:47;23.10;50.70
37232;DHT22;23125;48.156;15.954;2023-10-09T13:44:13;23.00;51.10
37232;DHT22;23125;48.156;15.954;2023-10-09T13:46:39;22.90;51.30
37232;DHT22;23125;48.156;15.954;2023-10-09T13:49:10;22.90;51.50
37232;DHT22;23125;48.156;15.954;2023-10-09T13:51:40;22.80;51.60
37232;DHT22;23125;48.156;15.954;2023-10-09T13:54:11;22.70;51.90
37232;DHT22;23125;48.156;15.954;2023-10-09T13:56:45;22.70;52.20
37232;DHT22;23125;48.156;15.954;2023-10-09T13:59:12;22.70;52.50
37232;DHT22;23125;48.156;15.954;2023-10-09T14:01:38;22.70;52.60
37232;DHT22;23125;48.156;15.954;2023-10-09T14:04:05;22.60;52.60
37232;DHT22;23125;48.156;15.954;2023-10-09T14:06:33;22.60;52.90
37232;DHT22;23125;48.156;15.954;2023-10-09T14:09:03;22.60;53.10
37232;DHT22;23125;48.156;15.954;2023-10-09T14:11:35;22.60;53.30
37232;DHT22;23125;48.156;15.954;2023-10-09T14:14:06;22.60;53.40
37232;DHT22;23125;48.156;15.954;2023-10-09T14:16:38;22.60;53.60
37232;DHT22;23125;48.156;15.954;2023-10-09T14:19:09;22.60;53.70
37232;DHT22;23125;48.156;15.954;2023-10-09T14:21:39;22.60;54.20
37232;DHT22;23125;48.156;15.954;2023-10-09T14:24:07;22.60;53.90
37232;DHT22;23125;48.156;15.954;2023-10-09T14:26:43;22.60;54.00
37232;DHT22;23125;48.156;15.954;2023-10-09T14:29:11;22.50;53.80
37232;DHT22;23125;48.156;15.954;2023-10-09T14:31:43;22.50;53.90
37232;DHT22;23125;48.156;15.954;2023-10-09T14:34:09;22.50;54.10
37232;DHT22;23125;48.156;15.954;2023-10-09T14:36:35;22.40;54.20
37232;DHT22;23125;48.156;15.954;2023-10-09T14:39:02;22.40;54.40
37232;DHT22;23125;48.156;15.954;2023-10-09T14:41:30;22.40;54.60
37232;DHT22;23125;48.156;15.954;2023-10-09T14:43:59;22.40;54.60
37232;DHT22;23125;48.156;15.954;2023-10-09T14:46:25;22.40;54.60
37232;DHT22;23125;48.156;15.954;2023-10-09T14:48:53;22.40;54.70
37232;DHT22;23125;48.156;15.954;2023-10-09T14:51:21;22.30;54.70
37232;DHT22;23125;48.156;15.954;2023-10-09T14:53:55;22.30;54.80
37232;DHT22;23125;48.156;15.954;2023-10-09T14:56:30;22.30;55.20
37232;DHT22;23125;48.156;15.954;2023-10-09T14:58:57;22.20;55.20
37232;DHT22;23125;48.156;15.954;2023-10-09T15:01:27;22.20;55.20
37232;DHT22;23125;48.156;15.954;2023-10-09T15:03:58;22.20;55.50
37232;DHT22;23125;48.156;15.954;2023-10-09T15:06:28;22.20;55.60
37232;DHT22;23125;48.156;15.954;2023-10-09T15:08:57;22.20;55.80
37232;DHT22;23125;48.156;15.954;2023-10-09T15:11:34;22.20;55.70
37232;DHT22;23125;48.156;15.954;2023-10-09T15:14:00;22.20;56.00
37232;DHT22;23125;48.156;15.954;2023-10-09T15:16:26;22.20;56.10
37232;DHT22;23125;48.156;15.954;2023-10-09T15:18:54;22.20;56.10
37232;DHT22;23125;48.156;15.954;2023-10-09T15:21:23;22.10;56.00
37232;DHT22;23125;48.156;15.954;2023-10-09T15:23:58;22.00;55.80
37232;DHT22;23125;48.156;15.954;2023-10-09T15:26:24;22.00;55.70
37232;DHT22;23125;48.156;15.954;2023-10-09T15:28:51;22.00;55.90
37232;DHT22;23125;48.156;15.954;2023-10-09T15:31:17;21.90;56.20
37232;DHT22;23125;48.156;15.954;2023-10-09T15:33:44;21.90;56.40
37232;DHT22;23125;48.156;15.954;2023-10-09T15:36:16;21.90;56.50
37232;DHT22;23125;48.156;15.954;2023-10-09T15:38:50;21.80;56.60
37232;DHT22;23125;48.156;15.954;2023-10-09T15:41:17;21.80;56.50
37232;DHT22;23125;48.156;15.954;2023-10-09T15:43:43;21.70;56.30
37232;DHT22;23125;48.156;15.954;2023-10-09T15:46:13;21.60;57.20
37232;DHT22;23125;48.156;15.954;2023-10-09T15:48:43;21.60;57.00
37232;DHT22;23125;48.156;15.954;2023-10-09T15:51:11;21.60;57.10
37232;DHT22;23125;48.156;15.954;2023-10-09T15:53:44;21.50;57.20
37232;DHT22;23125;48.156;15.954;2023-10-09T15:56:13;21.50;57.40
37232;DHT22;23125;48.156;15.954;2023-10-09T15:58:40;21.50;57.40
37232;DHT22;23125;48.156;15.954;2023-10-09T16:01:13;21.50;57.50
37232;DHT22;23125;48.156;15.954;2023-10-09T16:03:43;21.50;57.60
37232;DHT22;23125;48.156;15.954;2023-10-09T16:06:12;21.50;57.60
37232;DHT22;23125;48.156;15.954;2023-10-09T16:08:45;21.40;57.50
37232;DHT22;23125;48.156;15.954;2023-10-09T16:11:15;21.40;57.60
37232;DHT22;23125;48.156;15.954;2023-10-09T16:13:42;21.40;57.70
37232;DHT22;23125;48.156;15.954;2023-10-09T16:16:08;21.40;57.80
37232;DHT22;23125;48.156;15.954;2023-10-09T16:18:35;21.40;57.80
37232;DHT22;23125;48.156;15.954;2023-10-09T16:21:04;21.30;57.80
37232;DHT22;23125;48.156;15.954;2023-10-09T16:23:31;21.20;57.80
37232;DHT22;23125;48.156;15.954;2023-10-09T16:25:58;21.20;57.80